This is the latest recevied weather packets stored in our database for station/object PY1AU-13. If no packets are shown the sender has not sent any weather packets the latest 10 day(s).
| Time | Temp. | Humidity | Pressure | Rain* | Wind** | Luminosity | Snow |
|---|---|---|---|---|---|---|---|
| 1777420415 | 29.44° C | 93% | 1015.6 hPa | - | - | - | - |
| 1777420115 | 29.44° C | 93% | 1015.6 hPa | - | - | - | - |
| 1777419815 | 29.44° C | 93% | 1015.6 hPa | - | - | - | - |
| 1777419515 | 29.44° C | 93% | 1015.5 hPa | - | - | - | - |
| 1777419215 | 29.44° C | 93% | 1015.7 hPa | - | - | - | - |
| 1777418915 | 29.44° C | 92% | 1015.6 hPa | - | - | - | - |
| 1777418615 | 29.44° C | 92% | 1015.6 hPa | - | - | - | - |
| 1777418315 | 29.44° C | 92% | 1015.5 hPa | - | - | - | - |
| 1777418015 | 29.44° C | 92% | 1015.4 hPa | - | - | - | - |
| 1777417715 | 29.44° C | 92% | 1015.3 hPa | - | - | - | - |
| 1777417415 | 29.44° C | 92% | 1015.3 hPa | - | - | - | - |
| 1777417115 | 29.44° C | 92% | 1015.3 hPa | - | - | - | - |
| 1777416815 | 29.44° C | 92% | 1015.3 hPa | - | - | - | - |
| 1777416515 | 29.44° C | 92% | 1015.4 hPa | - | - | - | - |
| 1777416215 | 29.44° C | 92% | 1015.4 hPa | - | - | - | - |
| 1777415915 | 29.44° C | 93% | 1015.3 hPa | - | - | - | - |
| 1777415615 | 29.44° C | 96% | 1015.1 hPa | - | - | - | - |
| 1777415315 | 30° C | 92% | 1015.3 hPa | - | - | - | - |
| 1777415015 | 30° C | 94% | 1015.2 hPa | - | - | - | - |
| 1777414715 | 30° C | 94% | 1015.2 hPa | - | - | - | - |
| 1777414414 | 30° C | 92% | 1015.1 hPa | - | - | - | - |
| 1777414114 | 30° C | 92% | 1015.1 hPa | - | - | - | - |
| 1777413815 | 30° C | 92% | 1015.1 hPa | - | - | - | - |
| 1777413515 | 30° C | 91% | 1015 hPa | - | - | - | - |
| 1777413214 | 30° C | 91% | 1015 hPa | - | - | - | - |
* Rain since midnight (hover to see other rain measurements)
** Current wind speed in m/s (hover to see current wind gust speed)